createdAt,value
2022-12-20T00:01:34.392Z,101912.25
2022-12-20T00:04:05.255Z,101905.72
2022-12-20T00:06:35.996Z,101903.84
2022-12-20T00:09:06.871Z,101909.13
2022-12-20T00:11:35.257Z,101901.84
2022-12-20T00:14:02.822Z,101899.84
2022-12-20T00:16:30.632Z,101907.38
2022-12-20T00:19:00.608Z,101913.81
2022-12-20T00:21:28.780Z,101922.00
2022-12-20T00:23:57.104Z,101912.78
2022-12-20T00:26:27.538Z,101918.19
2022-12-20T00:28:56.831Z,101920.81
2022-12-20T00:31:26.793Z,101922.56
2022-12-20T00:33:55.778Z,101923.34
2022-12-20T00:36:24.971Z,101927.97
2022-12-20T00:38:55.585Z,101926.97
2022-12-20T00:41:26.007Z,101922.31
2022-12-20T00:43:55.110Z,101923.19
2022-12-20T00:46:25.098Z,101925.81
2022-12-20T00:48:54.825Z,101920.28
2022-12-20T00:51:26.727Z,101916.38
2022-12-20T00:53:55.144Z,101917.50
2022-12-20T00:56:23.125Z,101907.16
2022-12-20T00:58:50.641Z,101910.84
2022-12-20T01:01:25.152Z,101906.16
2022-12-20T01:03:53.349Z,101918.13
2022-12-20T01:06:22.658Z,101927.16
2022-12-20T01:08:50.547Z,101927.16
2022-12-20T01:11:24.240Z,101923.25
2022-12-20T01:13:56.318Z,101933.47
2022-12-20T01:16:46.073Z,101934.34
2022-12-20T01:19:17.865Z,101925.00
2022-12-20T01:21:46.137Z,101924.28
2022-12-20T01:24:15.615Z,101912.91
2022-12-20T01:26:43.891Z,101920.38
2022-12-20T01:29:11.822Z,101918.31
2022-12-20T01:31:39.572Z,101915.28
2022-12-20T01:34:07.166Z,101907.13
2022-12-20T01:36:40.233Z,101911.66
2022-12-20T01:39:09.053Z,101909.59
2022-12-20T01:41:38.299Z,101898.66
2022-12-20T01:44:25.967Z,101906.84
2022-12-20T01:46:54.788Z,101905.69
2022-12-20T01:49:24.298Z,101894.59
2022-12-20T01:51:58.168Z,101899.00
2022-12-20T01:54:30.811Z,101888.94
2022-12-20T01:57:02.096Z,101891.72
2022-12-20T01:59:32.864Z,101888.94
2022-12-20T02:02:05.048Z,101880.47
2022-12-20T02:04:33.351Z,101868.38
2022-12-20T02:07:01.866Z,101867.50
2022-12-20T02:09:31.781Z,101868.38
2022-12-20T02:12:21.068Z,101868.38
2022-12-20T02:15:15.865Z,101860.06
2022-12-20T02:18:20.778Z,101850.72
2022-12-20T02:21:13.031Z,101833.13
2022-12-20T02:29:38.767Z,101821.63
2022-12-20T02:32:16.755Z,101821.44
2022-12-20T02:34:46.028Z,101815.78
2022-12-20T02:37:13.632Z,101815.91
2022-12-20T02:39:44.542Z,101817.53
2022-12-20T02:42:20.918Z,101819.44
2022-12-20T02:45:16.332Z,101822.94
2022-12-20T02:47:53.447Z,101823.97
2022-12-20T02:50:32.812Z,101833.00
2022-12-20T02:53:00.706Z,101827.34
2022-12-20T02:55:52.382Z,101826.31
2022-12-20T02:58:47.568Z,101820.78
2022-12-20T03:01:23.430Z,101822.53
2022-12-20T03:03:52.534Z,101809.69
2022-12-20T03:06:20.830Z,101814.09
2022-12-20T03:08:48.403Z,101813.91
2022-12-20T03:11:15.977Z,101812.03
2022-12-20T03:13:43.493Z,101812.78
2022-12-20T03:16:11.268Z,101808.97
2022-12-20T03:18:39.633Z,101811.03
2022-12-20T03:21:07.451Z,101799.81
2022-12-20T03:23:34.928Z,101799.81
2022-12-20T03:26:02.433Z,101783.91
2022-12-20T03:28:37.683Z,101776.59
2022-12-20T03:31:06.770Z,101778.34
2022-12-20T03:33:42.429Z,101770.78
2022-12-20T03:36:10.153Z,101770.63
2022-12-20T03:38:37.923Z,101768.88
2022-12-20T03:41:07.349Z,101767.13
2022-12-20T03:43:34.998Z,101764.22
2022-12-20T03:46:02.901Z,101754.88
2022-12-20T03:48:35.389Z,101758.66
2022-12-20T03:51:02.839Z,101765.09
2022-12-20T03:53:30.739Z,101758.41
2022-12-20T03:55:58.473Z,101758.41
2022-12-20T03:58:26.397Z,101743.66
2022-12-20T04:00:56.244Z,101747.44
2022-12-20T04:03:53.285Z,101746.28
2022-12-20T04:06:22.073Z,101753.56
2022-12-20T04:08:51.129Z,101748.91
2022-12-20T04:11:25.865Z,101747.16
2022-12-20T04:13:59.928Z,101750.69
2022-12-20T04:16:29.476Z,101755.19
2022-12-20T04:18:57.960Z,101752.44
2022-12-20T04:21:33.015Z,101759.00
2022-12-20T04:24:02.589Z,101767.00
2022-12-20T04:26:39.808Z,101768.88
2022-12-20T04:29:07.413Z,101770.94
2022-12-20T04:31:35.200Z,101776.19
2022-12-20T04:34:03.032Z,101773.41
2022-12-20T04:36:32.473Z,101768.88
2022-12-20T04:39:03.106Z,101766.00
2022-12-20T04:41:37.849Z,101761.47
2022-12-20T04:44:10.211Z,101754.81
2022-12-20T04:46:38.834Z,101750.50
2022-12-20T04:49:10.501Z,101737.69
2022-12-20T04:51:40.762Z,101735.78
2022-12-20T04:54:08.323Z,101739.59
2022-12-20T04:56:41.543Z,101748.75
2022-12-20T04:59:12.571Z,101746.88
2022-12-20T05:01:42.719Z,101744.84
2022-12-20T05:04:11.490Z,101745.59
2022-12-20T05:06:39.480Z,101742.91
2022-12-20T05:09:07.769Z,101738.00
2022-12-20T05:11:35.347Z,101731.72
2022-12-20T05:14:06.353Z,101725.56
2022-12-20T05:16:33.901Z,101725.72
2022-12-20T05:19:03.375Z,101728.50
2022-12-20T05:21:52.078Z,101718.13
2022-12-20T05:24:38.337Z,101719.44
2022-12-20T05:27:28.419Z,101712.00
2022-12-20T05:29:55.953Z,101711.88
2022-12-20T05:32:24.267Z,101711.88
2022-12-20T05:34:53.835Z,101719.59
2022-12-20T05:37:21.662Z,101720.59
2022-12-20T05:39:49.196Z,101718.84
2022-12-20T05:42:20.849Z,101717.25
2022-12-20T05:44:51.736Z,101716.06
2022-12-20T05:47:20.797Z,101720.59
2022-12-20T05:49:52.231Z,101732.84
2022-12-20T05:52:20.155Z,101717.38
2022-12-20T05:54:47.808Z,101715.47
2022-12-20T05:57:18.401Z,101715.47
2022-12-20T05:59:47.099Z,101709.94
2022-12-20T06:02:20.799Z,101713.59
2022-12-20T06:04:52.134Z,101710.94
2022-12-20T06:07:22.722Z,101705.72
2022-12-20T06:09:55.521Z,101712.88
2022-12-20T06:12:27.636Z,101720.28
2022-12-20T06:14:55.319Z,101709.19
2022-12-20T06:17:22.920Z,101710.22
2022-12-20T06:19:52.141Z,101712.88
2022-12-20T06:22:19.593Z,101718.53
2022-12-20T06:24:51.425Z,101713.72
2022-12-20T06:27:23.648Z,101725.09
2022-12-20T06:30:14.047Z,101732.53
2022-12-20T06:33:06.749Z,101731.53
2022-12-20T06:35:34.581Z,101726.00
2022-12-20T06:38:02.070Z,101732.25
2022-12-20T06:40:33.310Z,101727.88
2022-12-20T06:43:01.952Z,101728.00
2022-12-20T06:45:29.787Z,101735.47
2022-12-20T06:47:58.432Z,101737.22
2022-12-20T06:50:27.902Z,101737.34
2022-12-20T06:52:55.675Z,101739.97
2022-12-20T06:55:25.365Z,101745.78
2022-12-20T06:57:52.926Z,101751.50
2022-12-20T07:00:21.404Z,101746.81
2022-12-20T07:02:48.987Z,101742.16
2022-12-20T07:05:16.617Z,101745.06
2022-12-20T07:07:45.318Z,101744.22
2022-12-20T07:10:13.266Z,101746.97
2022-12-20T07:12:45.641Z,101735.91
2022-12-20T07:15:16.457Z,101729.59
2022-12-20T07:17:44.162Z,101735.91
2022-12-20T07:20:14.098Z,101727.72
2022-12-20T07:22:42.456Z,101724.22
2022-12-20T07:25:11.389Z,101719.41
2022-12-20T07:27:38.923Z,101720.56
2022-12-20T07:30:07.244Z,101721.44
2022-12-20T07:32:34.823Z,101717.66
2022-12-20T07:35:02.257Z,101710.34
2022-12-20T07:37:30.541Z,101710.34
2022-12-20T07:39:58.022Z,101716.75
2022-12-20T07:42:31.971Z,101698.38
2022-12-20T07:45:03.300Z,101702.03
2022-12-20T07:47:31.146Z,101706.69
2022-12-20T07:49:58.701Z,101695.75
2022-12-20T07:52:29.868Z,101686.44
2022-12-20T07:55:02.641Z,101686.56
2022-12-20T07:57:37.022Z,101683.81
2022-12-20T08:00:06.081Z,101678.41
2022-12-20T08:02:49.159Z,101669.22
2022-12-20T08:05:17.927Z,101652.59
2022-12-20T08:07:46.880Z,101657.25
2022-12-20T08:10:16.964Z,101653.47
2022-12-20T08:12:47.238Z,101642.38
2022-12-20T08:15:15.358Z,101659.00
2022-12-20T08:17:42.837Z,101658.16
2022-12-20T08:20:10.637Z,101661.78
2022-12-20T08:22:38.112Z,101667.19
2022-12-20T08:25:06.089Z,101669.22
2022-12-20T08:27:33.871Z,101670.25
2022-12-20T08:30:01.308Z,101670.09
2022-12-20T08:32:29.455Z,101670.25
2022-12-20T08:34:56.942Z,101670.09
2022-12-20T08:37:24.373Z,101685.84
2022-12-20T08:39:51.784Z,101681.16
2022-12-20T08:42:19.275Z,101672.84
2022-12-20T08:44:46.752Z,101681.16
2022-12-20T08:47:14.284Z,101686.72
2022-12-20T08:49:47.326Z,101675.63
2022-12-20T08:52:15.580Z,101675.63
2022-12-20T08:54:43.158Z,101667.47
2022-12-20T09:02:06.799Z,101652.72
2022-12-20T09:04:34.486Z,101650.25
2022-12-20T09:07:02.154Z,101655.81
2022-12-20T09:09:29.792Z,101657.56
2022-12-20T09:11:58.482Z,101650.41
2022-12-20T09:14:25.897Z,101649.50
2022-12-20T09:16:53.403Z,101643.25
2022-12-20T09:19:20.824Z,101637.56
2022-12-20T09:21:48.178Z,101629.25
2022-12-20T09:24:15.807Z,101629.09
2022-12-20T09:26:43.173Z,101618.19
2022-12-20T09:29:13.171Z,101624.56
2022-12-20T09:31:41.330Z,101628.22
2022-12-20T09:34:10.130Z,101626.50
2022-12-20T09:36:38.325Z,101634.78
2022-12-20T09:39:05.758Z,101629.38
2022-12-20T09:41:38.220Z,101633.19
2022-12-20T09:44:32.059Z,101628.38
2022-12-20T09:47:09.992Z,101624.75
2022-12-20T09:49:42.636Z,101616.56
2022-12-20T09:52:25.414Z,101618.31
2022-12-20T09:54:52.701Z,101618.31
2022-12-20T09:57:34.071Z,101621.97
2022-12-20T10:00:01.639Z,101613.78
2022-12-20T10:05:53.149Z,101580.69
2022-12-20T10:08:45.525Z,101582.28
2022-12-20T10:11:40.914Z,101572.38
2022-12-20T10:14:54.070Z,101582.59
2022-12-20T10:17:50.288Z,101579.81
2022-12-20T10:21:02.346Z,101565.97
2022-12-20T10:23:35.529Z,101564.22
2022-12-20T10:26:09.904Z,101558.69
2022-12-20T10:28:38.142Z,101561.28
2022-12-20T10:31:08.493Z,101566.25
2022-12-20T10:33:36.191Z,101561.47
2022-12-20T10:36:31.132Z,101553.28
2022-12-20T10:39:01.459Z,101556.06
2022-12-20T10:41:40.993Z,101554.16
2022-12-20T10:44:15.336Z,101555.16
2022-12-20T10:46:53.913Z,101542.19
2022-12-20T10:49:28.172Z,101534.63
2022-12-20T10:52:14.773Z,101527.75
2022-12-20T10:54:44.509Z,101525.72
2022-12-20T10:57:20.169Z,101519.31
2022-12-20T11:00:00.305Z,101516.25
2022-12-20T11:02:39.909Z,101503.44
2022-12-20T11:05:14.539Z,101509.84
2022-12-20T11:10:42.141Z,101492.03
2022-12-20T11:13:21.705Z,101489.44
2022-12-20T11:15:51.984Z,101486.38
2022-12-20T11:19:06.320Z,101482.88
2022-12-20T11:21:42.748Z,101477.16
2022-12-20T11:24:28.990Z,101466.25
2022-12-20T11:27:33.809Z,101468.13
2022-12-20T11:30:40.513Z,101485.47
2022-12-20T11:33:33.970Z,101477.34
2022-12-20T11:36:11.264Z,101483.16
2022-12-20T11:38:46.299Z,101477.47
2022-12-20T11:41:13.589Z,101485.47
2022-12-20T11:44:22.765Z,101476.44
2022-12-20T11:47:02.009Z,101471.06
2022-12-20T11:49:36.596Z,101468.31
2022-12-20T11:52:14.942Z,101481.13
2022-12-20T11:54:53.215Z,101469.28
2022-12-20T11:57:38.350Z,101465.66
2022-12-20T12:00:26.392Z,101458.22
2022-12-20T12:03:00.706Z,101450.22
2022-12-20T12:05:45.796Z,101449.19
2022-12-20T12:08:19.202Z,101432.69
2022-12-20T12:10:58.041Z,101430.97
2022-12-20T12:13:28.640Z,101428.06
2022-12-20T12:16:18.101Z,101425.41
2022-12-20T12:18:46.009Z,101425.41
2022-12-20T12:21:35.820Z,101415.22
2022-12-20T12:24:33.072Z,101419.03
2022-12-20T12:27:00.960Z,101416.25
2022-12-20T12:29:30.830Z,101410.00
2022-12-20T12:32:00.985Z,101413.75
2022-12-20T12:34:47.645Z,101411.88
2022-12-20T12:37:33.528Z,101412.03
2022-12-20T12:40:34.056Z,101411.16
2022-12-20T12:43:29.320Z,101404.47
2022-12-20T12:46:03.344Z,101400.81
2022-12-20T12:48:45.430Z,101400.09
2022-12-20T12:51:15.289Z,101400.22
2022-12-20T12:53:48.563Z,101400.94
2022-12-20T12:56:43.907Z,101406.22
2022-12-20T12:59:34.014Z,101400.94
2022-12-20T13:02:04.470Z,101390.03
2022-12-20T13:04:59.697Z,101391.78
2022-12-20T13:07:33.217Z,101383.59
2022-12-20T13:10:21.988Z,101391.78
2022-12-20T13:12:52.774Z,101381.56
2022-12-20T13:15:20.223Z,101380.84
2022-12-20T13:18:01.626Z,101377.75
2022-12-20T13:20:34.060Z,101382.72
2022-12-20T13:23:10.593Z,101377.19
2022-12-20T13:25:44.014Z,101381.72
2022-12-20T13:28:23.803Z,101385.34
2022-12-20T13:30:54.076Z,101381.88
2022-12-20T13:33:45.257Z,101374.28
2022-12-20T13:36:12.584Z,101384.50
2022-12-20T13:38:46.178Z,101378.22
2022-12-20T13:41:22.941Z,101385.50
2022-12-20T13:43:52.982Z,101377.34
2022-12-20T13:46:46.977Z,101389.00
2022-12-20T13:49:23.839Z,101379.09
2022-12-20T13:52:18.164Z,101390.88
2022-12-20T13:54:49.680Z,101387.41
2022-12-20T13:57:23.035Z,101392.94
2022-12-20T13:59:58.441Z,101385.50
2022-12-20T14:02:41.925Z,101387.41
2022-12-20T14:05:26.864Z,101383.75
2022-12-20T14:08:16.327Z,101381.16
2022-12-20T14:10:43.937Z,101378.38
2022-12-20T14:13:23.877Z,101377.50
2022-12-20T14:15:52.312Z,101378.38
2022-12-20T14:18:26.259Z,101357.25
2022-12-20T14:20:58.102Z,101370.22
2022-12-20T14:23:34.636Z,101362.91
2022-12-20T14:26:02.854Z,101352.69
2022-12-20T14:28:32.857Z,101353.28
2022-12-20T14:31:01.903Z,101349.78
2022-12-20T14:33:40.995Z,101353.44
2022-12-20T14:36:08.499Z,101360.28
2022-12-20T14:38:35.988Z,101363.94
2022-12-20T14:41:03.431Z,101354.03
2022-12-20T14:43:35.062Z,101347.63
2022-12-20T14:46:17.023Z,101346.75
2022-12-20T14:48:44.887Z,101350.56
2022-12-20T14:51:14.032Z,101341.50
2022-12-20T14:53:45.750Z,101348.81
2022-12-20T14:56:17.644Z,101350.69
2022-12-20T14:58:45.331Z,101351.84
2022-12-20T15:01:15.868Z,101353.88
2022-12-20T15:03:55.798Z,101349.97
2022-12-20T15:06:43.709Z,101331.63
2022-12-20T15:09:11.402Z,101326.31
2022-12-20T15:11:39.215Z,101329.09
2022-12-20T15:14:25.030Z,101314.38
2022-12-20T15:16:53.291Z,101320.06
2022-12-20T15:19:20.617Z,101321.94
2022-12-20T15:21:48.149Z,101317.75
2022-12-20T15:24:19.814Z,101318.47
2022-12-20T15:26:48.787Z,101311.50
2022-12-20T15:29:24.951Z,101303.19
2022-12-20T15:32:07.637Z,101290.94
2022-12-20T15:34:38.086Z,101299.25
2022-12-20T15:37:06.398Z,101299.53
2022-12-20T15:39:34.346Z,101303.91
2022-12-20T15:42:03.655Z,101295.75
2022-12-20T15:44:31.507Z,101286.41
2022-12-20T15:46:59.113Z,101280.00
2022-12-20T15:49:30.128Z,101277.09
2022-12-20T15:51:58.061Z,101277.38
2022-12-20T15:54:34.696Z,101263.97
2022-12-20T15:57:07.452Z,101267.31
2022-12-20T16:02:27.953Z,101262.66
2022-12-20T16:04:56.005Z,101259.03
2022-12-20T16:07:23.692Z,101257.28
2022-12-20T16:09:51.401Z,101257.56
2022-12-20T16:12:28.540Z,101242.84
2022-12-20T16:14:55.884Z,101248.56
2022-12-20T16:17:24.437Z,101243.03
2022-12-20T16:19:51.775Z,101241.09
2022-12-20T16:22:22.361Z,101253.50
2022-12-20T16:24:50.157Z,101245.91
2022-12-20T16:27:17.727Z,101252.47
2022-12-20T16:29:45.598Z,101259.63
2022-12-20T16:32:15.660Z,101258.72
2022-12-20T16:34:43.257Z,101256.97
2022-12-20T16:37:11.890Z,101258.13
2022-12-20T16:39:39.660Z,101256.25
2022-12-20T16:42:22.255Z,101268.03
2022-12-20T16:44:54.421Z,101267.16
2022-12-20T16:47:22.500Z,101269.22
2022-12-20T16:49:53.349Z,101273.88
2022-12-20T16:52:22.872Z,101262.66
2022-12-20T16:54:51.191Z,101270.81
2022-12-20T16:57:20.510Z,101267.16
2022-12-20T16:59:48.613Z,101261.63
2022-12-20T17:02:25.409Z,101258.13
2022-12-20T17:04:53.027Z,101261.47
2022-12-20T17:07:21.271Z,101259.03
2022-12-20T17:12:33.827Z,101250.41
2022-12-20T17:15:01.151Z,101246.94
2022-12-20T17:17:28.527Z,101243.44
2022-12-20T17:19:55.947Z,101245.19
2022-12-20T17:25:30.255Z,101242.25
2022-12-20T17:27:57.680Z,101238.75
2022-12-20T17:30:26.214Z,101238.63
2022-12-20T17:32:54.103Z,101235.69
2022-12-20T17:35:21.469Z,101234.81
2022-12-20T17:37:49.290Z,101231.63
2022-12-20T17:40:16.927Z,101230.91
2022-12-20T17:42:44.648Z,101232.81
2022-12-20T17:45:32.626Z,101223.47
2022-12-20T17:48:00.167Z,101229.19
2022-12-20T17:50:27.889Z,101236.28
2022-12-20T17:52:55.524Z,101241.81
2022-12-20T17:55:28.566Z,101241.81
2022-12-20T17:57:56.256Z,101240.97
2022-12-20T18:00:36.330Z,101234.53
2022-12-20T18:03:06.907Z,101240.81
2022-12-20T18:05:35.174Z,101227.97
2022-12-20T18:08:02.546Z,101232.53
2022-12-20T18:10:29.931Z,101230.75
2022-12-20T18:12:57.335Z,101238.91
2022-12-20T18:15:24.869Z,101239.81
2022-12-20T18:17:52.247Z,101234.41
2022-12-20T18:20:19.595Z,101237.88
2022-12-20T18:22:47.082Z,101241.53
2022-12-20T18:25:18.260Z,101231.31
2022-12-20T18:27:45.779Z,101222.88
2022-12-20T18:30:13.595Z,101223.19
2022-12-20T18:32:41.447Z,101221.13
2022-12-20T18:35:09.739Z,101220.09
2022-12-20T18:37:37.137Z,101216.44
2022-12-20T18:40:05.138Z,101220.09
2022-12-20T18:42:33.053Z,101221.84
2022-12-20T18:45:00.554Z,101214.44
2022-12-20T18:47:28.942Z,101207.16
2022-12-20T18:49:56.338Z,101208.00
2022-12-20T18:52:23.702Z,101197.81
2022-12-20T18:54:51.116Z,101208.88
2022-12-20T18:57:18.596Z,101201.44
2022-12-20T18:59:46.291Z,101196.06
2022-12-20T19:02:15.241Z,101201.16
2022-12-20T19:04:43.047Z,101191.09
2022-12-20T19:07:11.426Z,101180.31
2022-12-20T19:09:38.995Z,101175.47
2022-12-20T19:12:06.634Z,101175.66
2022-12-20T19:14:34.106Z,101175.66
2022-12-20T19:17:01.657Z,101182.94
2022-12-20T19:19:29.053Z,101176.50
2022-12-20T19:21:56.444Z,101165.44
2022-12-20T19:24:23.765Z,101166.47
2022-12-20T19:26:51.196Z,101158.16
2022-12-20T19:29:18.677Z,101157.31
2022-12-20T19:31:46.198Z,101162.66
2022-12-20T19:34:13.719Z,101161.81
2022-12-20T19:36:43.905Z,101155.38
2022-12-20T19:39:23.037Z,101160.94
2022-12-20T19:44:39.256Z,101167.19
2022-12-20T19:47:06.822Z,101161.81
2022-12-20T19:49:36.107Z,101163.56
2022-12-20T19:52:05.799Z,101168.22
2022-12-20T19:54:33.444Z,101167.34
2022-12-20T19:57:00.921Z,101165.44
2022-12-20T19:59:30.707Z,101162.66
2022-12-20T20:01:58.327Z,101170.13
2022-12-20T20:04:26.032Z,101166.31
2022-12-20T20:06:53.465Z,101158.16
2022-12-20T20:09:21.201Z,101159.91
2022-12-20T20:11:48.546Z,101156.28
2022-12-20T20:14:15.990Z,101153.34
2022-12-20T20:16:48.130Z,101150.00
2022-12-20T20:19:17.585Z,101145.50
2022-12-20T20:21:45.411Z,101139.81
2022-12-20T20:24:13.042Z,101134.28
2022-12-20T20:26:40.390Z,101145.34
2022-12-20T20:29:10.588Z,101141.69
2022-12-20T20:31:38.839Z,101134.28
2022-12-20T20:34:06.240Z,101125.06
2022-12-20T20:36:33.621Z,101118.53
2022-12-20T20:39:01.023Z,101118.38
2022-12-20T20:41:28.506Z,101123.19
2022-12-20T20:43:55.872Z,101124.78
2022-12-20T20:46:23.231Z,101121.13
2022-12-20T20:48:50.732Z,101120.09
2022-12-20T20:51:18.310Z,101113.41
2022-12-20T20:53:45.862Z,101115.59
2022-12-20T20:56:13.220Z,101107.84
2022-12-20T20:58:40.771Z,101110.94
2022-12-20T21:01:10.193Z,101107.00
2022-12-20T21:03:38.223Z,101109.91
2022-12-20T21:06:39.248Z,101117.34
2022-12-20T21:08:54.788Z,101117.34
2022-12-20T21:11:22.677Z,101127.41
2022-12-20T21:13:50.380Z,101123.75
2022-12-20T21:16:22.542Z,101126.53
2022-12-20T21:18:54.996Z,101127.56
2022-12-20T21:21:24.549Z,101121.88
2022-12-20T21:23:53.260Z,101122.88
2022-12-20T21:26:22.571Z,101122.88
2022-12-20T21:28:50.027Z,101121.00
2022-12-20T21:31:19.712Z,101108.03
2022-12-20T21:33:47.250Z,101111.97
2022-12-20T21:36:16.959Z,101105.25
2022-12-20T21:38:50.469Z,101096.97
2022-12-20T21:41:20.132Z,101091.56
2022-12-20T21:43:47.588Z,101088.66
2022-12-20T21:46:15.678Z,101091.25
2022-12-20T21:48:44.557Z,101094.56
2022-12-20T21:51:14.520Z,101090.22
2022-12-20T21:53:44.280Z,101096.63
2022-12-20T21:56:12.247Z,101094.28
2022-12-20T21:58:39.647Z,101098.94
2022-12-20T22:01:08.531Z,101091.50
2022-12-20T22:03:37.586Z,101074.47
2022-12-20T22:06:05.259Z,101066.03
2022-12-20T22:08:33.354Z,101065.84
2022-12-20T22:11:03.153Z,101060.50
2022-12-20T22:13:37.088Z,101048.53
2022-12-20T22:16:16.009Z,101046.47
2022-12-20T22:18:44.636Z,101046.78
2022-12-20T22:21:14.283Z,101047.50
2022-12-20T22:23:42.461Z,101043.88
2022-12-20T22:26:13.290Z,101050.41
2022-12-20T22:28:47.024Z,101040.63
2022-12-20T22:31:15.198Z,101025.75
2022-12-20T22:33:42.895Z,101037.53
2022-12-20T22:36:12.185Z,101036.22
2022-12-20T22:38:39.972Z,101020.78
2022-12-20T22:41:16.220Z,101017.81
2022-12-20T22:43:45.418Z,101015.06
2022-12-20T22:46:14.026Z,101000.66
2022-12-20T22:48:41.677Z,101007.97
2022-12-20T22:51:14.517Z,101011.59
2022-12-20T22:53:42.730Z,101016.09
2022-12-20T22:56:10.834Z,101011.59
2022-12-20T22:58:39.256Z,101008.81
2022-12-20T23:01:08.982Z,101006.03
2022-12-20T23:03:37.321Z,100993.94
2022-12-20T23:06:06.844Z,100986.66
2022-12-20T23:08:36.284Z,100983.75
2022-12-20T23:11:23.579Z,100976.47
2022-12-20T23:14:09.727Z,100967.28
2022-12-20T23:16:38.344Z,100963.81
2022-12-20T23:19:05.733Z,100967.41
2022-12-20T23:21:51.731Z,100973.84
2022-12-20T23:24:19.068Z,100984.59
2022-12-20T23:27:05.036Z,100986.50
2022-12-20T23:29:32.483Z,100968.31
2022-12-20T23:31:59.994Z,100962.75
2022-12-20T23:34:28.228Z,100965.69
2022-12-20T23:36:55.606Z,100958.97
2022-12-20T23:39:22.985Z,100944.25
2022-12-20T23:41:50.420Z,100935.06
2022-12-20T23:44:17.745Z,100950.81
2022-12-20T23:46:45.123Z,100939.56
2022-12-20T23:49:12.535Z,100939.28
2022-12-20T23:51:39.941Z,100937.69
2022-12-20T23:54:07.261Z,100940.47
2022-12-20T23:56:34.741Z,100943.38
2022-12-20T23:59:02.505Z,100933.00
